sensor_id;sensor_type;location;lat;lon;timestamp;pressure;altitude;pressure_sealevel;temperature;humidity
25430;BME280;13360;48.152;-1.788;2023-04-08T00:00:43;101962.34;;;11.77;100.00
25430;BME280;13360;48.152;-1.788;2023-04-08T00:03:08;101975.06;;;11.78;100.00
25430;BME280;13360;48.152;-1.788;2023-04-08T00:05:33;101962.91;;;11.74;100.00
25430;BME280;13360;48.152;-1.788;2023-04-08T00:07:58;101973.41;;;11.77;100.00
25430;BME280;13360;48.152;-1.788;2023-04-08T00:10:24;101975.06;;;11.78;100.00
25430;BME280;13360;48.152;-1.788;2023-04-08T00:12:50;101972.88;;;11.80;100.00
25430;BME280;13360;48.152;-1.788;2023-04-08T00:15:15;101970.66;;;11.72;100.00
25430;BME280;13360;48.152;-1.788;2023-04-08T00:17:41;101983.94;;;11.70;100.00
25430;BME280;13360;48.152;-1.788;2023-04-08T00:20:06;101979.78;;;11.67;100.00
25430;BME280;13360;48.152;-1.788;2023-04-08T00:22:31;101975.59;;;11.65;100.00
25430;BME280;13360;48.152;-1.788;2023-04-08T00:24:57;101980.31;;;11.64;100.00
25430;BME280;13360;48.152;-1.788;2023-04-08T00:27:22;101976.69;;;11.64;100.00
25430;BME280;13360;48.152;-1.788;2023-04-08T00:29:49;101981.41;;;11.58;100.00
25430;BME280;13360;48.152;-1.788;2023-04-08T00:32:15;101988.31;;;11.55;100.00
25430;BME280;13360;48.152;-1.788;2023-04-08T00:34:40;101988.88;;;11.52;100.00
25430;BME280;13360;48.152;-1.788;2023-04-08T00:37:06;101987.22;;;11.56;100.00
25430;BME280;13360;48.152;-1.788;2023-04-08T00:39:31;101984.44;;;11.56;100.00
25430;BME280;13360;48.152;-1.788;2023-04-08T00:41:56;101982.78;;;11.55;100.00
25430;BME280;13360;48.152;-1.788;2023-04-08T00:44:21;101981.94;;;11.55;100.00
25430;BME280;13360;48.152;-1.788;2023-04-08T00:46:47;101981.13;;;11.49;100.00
25430;BME280;13360;48.152;-1.788;2023-04-08T00:49:12;101976.69;;;11.48;100.00
25430;BME280;13360;48.152;-1.788;2023-04-08T00:51:37;101988.31;;;11.45;100.00
25430;BME280;13360;48.152;-1.788;2023-04-08T00:54:03;101984.44;;;11.46;100.00
25430;BME280;13360;48.152;-1.788;2023-04-08T00:56:29;101984.94;;;11.43;100.00
25430;BME280;13360;48.152;-1.788;2023-04-08T00:58:55;101989.38;;;11.39;100.00
25430;BME280;13360;48.152;-1.788;2023-04-08T01:01:24;101979.97;;;11.40;100.00
25430;BME280;13360;48.152;-1.788;2023-04-08T01:03:57;101985.22;;;11.37;100.00
25430;BME280;13360;48.152;-1.788;2023-04-08T01:06:30;101990.75;;;11.37;100.00
25430;BME280;13360;48.152;-1.788;2023-04-08T01:08:56;101991.31;;;11.34;100.00
25430;BME280;13360;48.152;-1.788;2023-04-08T01:11:24;101992.41;;;11.33;100.00
25430;BME280;13360;48.152;-1.788;2023-04-08T01:13:50;101996.00;;;11.33;100.00
25430;BME280;13360;48.152;-1.788;2023-04-08T01:16:18;101995.16;;;11.33;100.00
25430;BME280;13360;48.152;-1.788;2023-04-08T01:18:45;101979.94;;;11.30;100.00
25430;BME280;13360;48.152;-1.788;2023-04-08T01:21:10;101984.38;;;11.26;100.00
25430;BME280;13360;48.152;-1.788;2023-04-08T01:23:42;101997.38;;;11.25;100.00
25430;BME280;13360;48.152;-1.788;2023-04-08T01:26:11;101977.69;;;11.22;100.00
25430;BME280;13360;48.152;-1.788;2023-04-08T01:28:37;101979.91;;;11.20;100.00
25430;BME280;13360;48.152;-1.788;2023-04-08T01:31:03;101972.13;;;11.12;100.00
25430;BME280;13360;48.152;-1.788;2023-04-08T01:33:28;101976.53;;;11.08;100.00
25430;BME280;13360;48.152;-1.788;2023-04-08T01:35:55;101970.47;;;11.06;100.00
25430;BME280;13360;48.152;-1.788;2023-04-08T01:38:22;101963.50;;;11.03;100.00
25430;BME280;13360;48.152;-1.788;2023-04-08T01:40:48;101958.78;;;10.98;100.00
25430;BME280;13360;48.152;-1.788;2023-04-08T01:43:15;101960.16;;;10.96;100.00
25430;BME280;13360;48.152;-1.788;2023-04-08T01:45:44;101955.19;;;10.93;100.00
25430;BME280;13360;48.152;-1.788;2023-04-08T01:48:10;101952.97;;;10.90;100.00
25430;BME280;13360;48.152;-1.788;2023-04-08T01:50:36;101943.28;;;10.87;100.00
25430;BME280;13360;48.152;-1.788;2023-04-08T01:53:02;101940.78;;;10.86;100.00
25430;BME280;13360;48.152;-1.788;2023-04-08T01:55:28;101937.19;;;10.85;100.00
25430;BME280;13360;48.152;-1.788;2023-04-08T01:57:54;101932.72;;;10.79;100.00
25430;BME280;13360;48.152;-1.788;2023-04-08T02:00:23;101923.88;;;10.77;100.00
25430;BME280;13360;48.152;-1.788;2023-04-08T02:02:50;101915.28;;;10.74;100.00
25430;BME280;13360;48.152;-1.788;2023-04-08T02:05:15;101920.00;;;10.73;100.00
25430;BME280;13360;48.152;-1.788;2023-04-08T02:07:40;101914.72;;;10.66;100.00
25430;BME280;13360;48.152;-1.788;2023-04-08T02:10:06;101914.44;;;10.68;100.00
25430;BME280;13360;48.152;-1.788;2023-04-08T02:12:32;101918.88;;;10.69;100.00
25430;BME280;13360;48.152;-1.788;2023-04-08T02:14:57;101919.16;;;10.67;100.00
25430;BME280;13360;48.152;-1.788;2023-04-08T02:17:24;101917.22;;;10.68;100.00
25430;BME280;13360;48.152;-1.788;2023-04-08T02:20:00;101911.13;;;10.66;100.00
25430;BME280;13360;48.152;-1.788;2023-04-08T02:22:43;101923.56;;;10.63;100.00
25430;BME280;13360;48.152;-1.788;2023-04-08T02:25:15;101918.28;;;10.62;100.00
25430;BME280;13360;48.152;-1.788;2023-04-08T02:27:41;101923.22;;;10.60;100.00
25430;BME280;13360;48.152;-1.788;2023-04-08T02:30:07;101929.84;;;10.59;100.00
25430;BME280;13360;48.152;-1.788;2023-04-08T02:32:34;101921.53;;;10.54;100.00
25430;BME280;13360;48.152;-1.788;2023-04-08T02:35:00;101935.34;;;10.54;100.00
25430;BME280;13360;48.152;-1.788;2023-04-08T02:37:29;101939.78;;;10.55;100.00
25430;BME280;13360;48.152;-1.788;2023-04-08T02:39:55;101939.22;;;10.53;100.00
25430;BME280;13360;48.152;-1.788;2023-04-08T02:42:20;101936.16;;;10.49;100.00
25430;BME280;13360;48.152;-1.788;2023-04-08T02:44:45;101939.19;;;10.48;100.00
25430;BME280;13360;48.152;-1.788;2023-04-08T02:47:11;101939.19;;;10.43;100.00
25430;BME280;13360;48.152;-1.788;2023-04-08T02:49:36;101938.59;;;10.41;100.00
25430;BME280;13360;48.152;-1.788;2023-04-08T02:52:01;101936.91;;;10.39;100.00
25430;BME280;13360;48.152;-1.788;2023-04-08T02:54:26;101931.09;;;10.36;100.00
25430;BME280;13360;48.152;-1.788;2023-04-08T02:56:52;101928.59;;;10.34;100.00
25430;BME280;13360;48.152;-1.788;2023-04-08T02:59:17;101928.59;;;10.34;100.00
25430;BME280;13360;48.152;-1.788;2023-04-08T03:01:42;101931.91;;;10.31;100.00
25430;BME280;13360;48.152;-1.788;2023-04-08T03:04:08;101932.47;;;10.33;100.00
25430;BME280;13360;48.152;-1.788;2023-04-08T03:06:33;101934.41;;;10.33;100.00
25430;BME280;13360;48.152;-1.788;2023-04-08T03:08:58;101937.69;;;10.30;100.00
25430;BME280;13360;48.152;-1.788;2023-04-08T03:11:23;101944.06;;;10.30;100.00
25430;BME280;13360;48.152;-1.788;2023-04-08T03:13:50;101942.66;;;10.28;100.00
25430;BME280;13360;48.152;-1.788;2023-04-08T03:16:15;101951.22;;;10.26;100.00
25430;BME280;13360;48.152;-1.788;2023-04-08T03:18:40;101945.03;;;10.19;100.00
25430;BME280;13360;48.152;-1.788;2023-04-08T03:21:06;101949.16;;;10.17;100.00
25430;BME280;13360;48.152;-1.788;2023-04-08T03:23:31;101953.00;;;10.16;100.00
25430;BME280;13360;48.152;-1.788;2023-04-08T03:25:56;101953.84;;;10.16;100.00
25430;BME280;13360;48.152;-1.788;2023-04-08T03:28:21;101960.19;;;10.17;100.00
25430;BME280;13360;48.152;-1.788;2023-04-08T03:30:47;101957.16;;;10.13;100.00
25430;BME280;13360;48.152;-1.788;2023-04-08T03:33:12;101951.88;;;10.12;100.00
25430;BME280;13360;48.152;-1.788;2023-04-08T03:35:37;101957.09;;;10.08;100.00
25430;BME280;13360;48.152;-1.788;2023-04-08T03:38:03;101958.22;;;10.07;100.00
25430;BME280;13360;48.152;-1.788;2023-04-08T03:40:28;101957.09;;;10.08;100.00
25430;BME280;13360;48.152;-1.788;2023-04-08T03:42:53;101957.38;;;10.06;100.00
25430;BME280;13360;48.152;-1.788;2023-04-08T03:45:18;101955.97;;;10.04;100.00
25430;BME280;13360;48.152;-1.788;2023-04-08T03:47:44;101952.66;;;10.02;100.00
25430;BME280;13360;48.152;-1.788;2023-04-08T03:50:09;101951.50;;;9.98;100.00
25430;BME280;13360;48.152;-1.788;2023-04-08T03:52:34;101960.59;;;9.98;100.00
25430;BME280;13360;48.152;-1.788;2023-04-08T03:55:00;101956.44;;;9.96;100.00
25430;BME280;13360;48.152;-1.788;2023-04-08T03:57:25;101959.72;;;9.93;100.00
25430;BME280;13360;48.152;-1.788;2023-04-08T03:59:50;101960.25;;;9.90;100.00
25430;BME280;13360;48.152;-1.788;2023-04-08T04:02:15;101961.63;;;9.87;100.00
25430;BME280;13360;48.152;-1.788;2023-04-08T04:04:41;101956.91;;;9.83;100.00
25430;BME280;13360;48.152;-1.788;2023-04-08T04:07:06;101951.66;;;9.81;100.00
25430;BME280;13360;48.152;-1.788;2023-04-08T04:09:31;101950.47;;;9.77;100.00
25430;BME280;13360;48.152;-1.788;2023-04-08T04:11:56;101956.00;;;9.77;100.00
25430;BME280;13360;48.152;-1.788;2023-04-08T04:14:22;101962.88;;;9.74;100.00
25430;BME280;13360;48.152;-1.788;2023-04-08T04:16:47;101967.25;;;9.70;100.00
25430;BME280;13360;48.152;-1.788;2023-04-08T04:19:12;101960.06;;;9.69;100.00
25430;BME280;13360;48.152;-1.788;2023-04-08T04:21:37;101964.19;;;9.67;100.00
25430;BME280;13360;48.152;-1.788;2023-04-08T04:24:03;101968.31;;;9.64;100.00
25430;BME280;13360;48.152;-1.788;2023-04-08T04:26:28;101966.06;;;9.61;100.00
25430;BME280;13360;48.152;-1.788;2023-04-08T04:28:53;101970.19;;;9.59;100.00
25430;BME280;13360;48.152;-1.788;2023-04-08T04:31:22;101981.22;;;9.59;100.00
25430;BME280;13360;48.152;-1.788;2023-04-08T04:33:50;101979.31;;;9.59;100.00
25430;BME280;13360;48.152;-1.788;2023-04-08T04:36:15;101971.50;;;9.56;100.00
25430;BME280;13360;48.152;-1.788;2023-04-08T04:38:40;101970.69;;;9.56;100.00
25430;BME280;13360;48.152;-1.788;2023-04-08T04:41:06;101965.94;;;9.51;100.00
25430;BME280;13360;48.152;-1.788;2023-04-08T04:43:32;101966.16;;;9.44;100.00
25430;BME280;13360;48.152;-1.788;2023-04-08T04:45:57;101957.31;;;9.42;100.00
25430;BME280;13360;48.152;-1.788;2023-04-08T04:48:23;101963.38;;;9.39;100.00
25430;BME280;13360;48.152;-1.788;2023-04-08T04:50:55;101965.78;;;9.36;100.00
25430;BME280;13360;48.152;-1.788;2023-04-08T04:53:20;101961.63;;;9.33;100.00
25430;BME280;13360;48.152;-1.788;2023-04-08T04:55:46;101980.16;;;9.38;100.00
25430;BME280;13360;48.152;-1.788;2023-04-08T04:58:11;101965.78;;;9.36;100.00
25430;BME280;13360;48.152;-1.788;2023-04-08T05:00:36;101962.72;;;9.32;100.00
25430;BME280;13360;48.152;-1.788;2023-04-08T05:03:01;101967.97;;;9.34;100.00
25430;BME280;13360;48.152;-1.788;2023-04-08T05:05:26;101959.13;;;9.32;100.00
25430;BME280;13360;48.152;-1.788;2023-04-08T05:07:52;101960.75;;;9.28;100.00
25430;BME280;13360;48.152;-1.788;2023-04-08T05:10:17;101971.50;;;9.29;100.00
25430;BME280;13360;48.152;-1.788;2023-04-08T05:12:43;101974.00;;;9.31;100.00
25430;BME280;13360;48.152;-1.788;2023-04-08T05:15:08;101970.97;;;9.32;100.00
25430;BME280;13360;48.152;-1.788;2023-04-08T05:17:33;101965.16;;;9.29;100.00
25430;BME280;13360;48.152;-1.788;2023-04-08T05:19:58;101979.22;;;9.27;100.00
25430;BME280;13360;48.152;-1.788;2023-04-08T05:22:24;101984.72;;;9.27;100.00
25430;BME280;13360;48.152;-1.788;2023-04-08T05:24:49;101988.56;;;9.26;100.00
25430;BME280;13360;48.152;-1.788;2023-04-08T05:27:15;101998.50;;;9.27;100.00
25430;BME280;13360;48.152;-1.788;2023-04-08T05:29:40;101994.09;;;9.26;100.00
25430;BME280;13360;48.152;-1.788;2023-04-08T05:32:05;102003.44;;;9.25;100.00
25430;BME280;13360;48.152;-1.788;2023-04-08T05:34:31;101998.19;;;9.24;100.00
25430;BME280;13360;48.152;-1.788;2023-04-08T05:36:56;102006.97;;;9.21;100.00
25430;BME280;13360;48.152;-1.788;2023-04-08T05:39:21;102014.16;;;9.22;100.00
25430;BME280;13360;48.152;-1.788;2023-04-08T05:41:46;102026.84;;;9.23;100.00
25430;BME280;13360;48.152;-1.788;2023-04-08T05:44:12;102035.97;;;9.23;100.00
25430;BME280;13360;48.152;-1.788;2023-04-08T05:46:38;102050.56;;;9.24;100.00
25430;BME280;13360;48.152;-1.788;2023-04-08T05:49:03;102060.50;;;9.25;100.00
25430;BME280;13360;48.152;-1.788;2023-04-08T05:51:29;102071.59;;;9.30;100.00
25430;BME280;13360;48.152;-1.788;2023-04-08T05:53:54;102083.47;;;9.30;100.00
25430;BME280;13360;48.152;-1.788;2023-04-08T05:56:19;102078.53;;;9.32;100.00
25430;BME280;13360;48.152;-1.788;2023-04-08T05:58:45;102075.75;;;9.32;100.00
25430;BME280;13360;48.152;-1.788;2023-04-08T06:01:11;102088.72;;;9.32;100.00
25430;BME280;13360;48.152;-1.788;2023-04-08T06:03:36;102097.25;;;9.30;100.00
25430;BME280;13360;48.152;-1.788;2023-04-08T06:06:01;102107.50;;;9.35;100.00
25430;BME280;13360;48.152;-1.788;2023-04-08T06:08:27;102109.84;;;9.43;100.00
25430;BME280;13360;48.152;-1.788;2023-04-08T06:10:52;102120.88;;;9.43;100.00
25430;BME280;13360;48.152;-1.788;2023-04-08T06:13:17;102123.94;;;9.46;100.00
25430;BME280;13360;48.152;-1.788;2023-04-08T06:15:44;102127.59;;;9.52;100.00
25430;BME280;13360;48.152;-1.788;2023-04-08T06:18:09;102140.28;;;9.53;100.00
25430;BME280;13360;48.152;-1.788;2023-04-08T06:20:34;102138.69;;;9.57;100.00
25430;BME280;13360;48.152;-1.788;2023-04-08T06:23:00;102144.16;;;9.52;100.00
25430;BME280;13360;48.152;-1.788;2023-04-08T06:25:25;102150.81;;;9.56;100.00
25430;BME280;13360;48.152;-1.788;2023-04-08T06:27:51;102160.28;;;9.60;100.00
25430;BME280;13360;48.152;-1.788;2023-04-08T06:30:16;102175.22;;;9.64;100.00
25430;BME280;13360;48.152;-1.788;2023-04-08T06:32:41;102184.66;;;9.68;100.00
25430;BME280;13360;48.152;-1.788;2023-04-08T06:35:07;102201.25;;;9.73;100.00
25430;BME280;13360;48.152;-1.788;2023-04-08T06:37:32;102221.50;;;9.79;100.00
25430;BME280;13360;48.152;-1.788;2023-04-08T06:40:02;102238.38;;;9.83;100.00
25430;BME280;13360;48.152;-1.788;2023-04-08T06:42:28;102249.16;;;9.84;100.00
25430;BME280;13360;48.152;-1.788;2023-04-08T06:44:53;102250.56;;;9.87;100.00
25430;BME280;13360;48.152;-1.788;2023-04-08T06:47:18;102265.00;;;9.94;100.00
25430;BME280;13360;48.152;-1.788;2023-04-08T06:49:43;102273.34;;;9.99;100.00
25430;BME280;13360;48.152;-1.788;2023-04-08T06:52:09;102279.72;;;9.99;100.00
25430;BME280;13360;48.152;-1.788;2023-04-08T06:54:34;102291.34;;;10.01;100.00
25430;BME280;13360;48.152;-1.788;2023-04-08T06:56:59;102301.13;;;10.09;100.00
25430;BME280;13360;48.152;-1.788;2023-04-08T06:59:24;102309.72;;;10.13;100.00
25430;BME280;13360;48.152;-1.788;2023-04-08T07:01:50;102344.13;;;10.22;100.00
25430;BME280;13360;48.152;-1.788;2023-04-08T07:04:15;102363.22;;;10.23;100.00
25430;BME280;13360;48.152;-1.788;2023-04-08T07:06:40;102364.88;;;10.24;100.00
25430;BME280;13360;48.152;-1.788;2023-04-08T07:09:05;102370.78;;;10.33;100.00
25430;BME280;13360;48.152;-1.788;2023-04-08T07:11:32;102378.22;;;10.32;100.00
25430;BME280;13360;48.152;-1.788;2023-04-08T07:13:57;102386.06;;;10.41;100.00
25430;BME280;13360;48.152;-1.788;2023-04-08T07:16:23;102397.78;;;10.48;100.00
25430;BME280;13360;48.152;-1.788;2023-04-08T07:18:48;102397.97;;;10.41;100.00
25430;BME280;13360;48.152;-1.788;2023-04-08T07:21:13;102406.50;;;10.39;100.00
25430;BME280;13360;48.152;-1.788;2023-04-08T07:23:38;102407.16;;;10.47;100.00
25430;BME280;13360;48.152;-1.788;2023-04-08T07:26:04;102411.84;;;10.46;100.00
25430;BME280;13360;48.152;-1.788;2023-04-08T07:28:30;102410.19;;;10.45;100.00
25430;BME280;13360;48.152;-1.788;2023-04-08T07:30:55;102415.16;;;10.65;100.00
25430;BME280;13360;48.152;-1.788;2023-04-08T07:33:21;102431.84;;;10.75;100.00
25430;BME280;13360;48.152;-1.788;2023-04-08T07:35:47;102437.84;;;10.89;100.00
25430;BME280;13360;48.152;-1.788;2023-04-08T07:38:12;102441.50;;;10.94;100.00
25430;BME280;13360;48.152;-1.788;2023-04-08T07:40:38;102408.78;;;10.86;100.00
25430;BME280;13360;48.152;-1.788;2023-04-08T07:43:03;102407.94;;;10.86;100.00
25430;BME280;13360;48.152;-1.788;2023-04-08T07:45:28;102411.06;;;10.94;100.00
25430;BME280;13360;48.152;-1.788;2023-04-08T07:47:53;102423.69;;;11.07;100.00
25430;BME280;13360;48.152;-1.788;2023-04-08T07:50:19;102394.34;;;11.06;100.00
25430;BME280;13360;48.152;-1.788;2023-04-08T07:52:44;102386.31;;;11.05;100.00
25430;BME280;13360;48.152;-1.788;2023-04-08T07:55:10;102391.50;;;11.01;100.00
25430;BME280;13360;48.152;-1.788;2023-04-08T07:57:35;102395.81;;;11.14;100.00
25430;BME280;13360;48.152;-1.788;2023-04-08T08:00:00;102394.66;;;11.10;100.00
25430;BME280;13360;48.152;-1.788;2023-04-08T08:02:25;102394.13;;;11.13;100.00
25430;BME280;13360;48.152;-1.788;2023-04-08T08:04:51;102377.31;;;11.19;100.00
25430;BME280;13360;48.152;-1.788;2023-04-08T08:07:16;102378.28;;;11.30;100.00
25430;BME280;13360;48.152;-1.788;2023-04-08T08:09:41;102367.75;;;11.27;100.00
25430;BME280;13360;48.152;-1.788;2023-04-08T08:12:06;102382.34;;;11.49;100.00
25430;BME280;13360;48.152;-1.788;2023-04-08T08:14:32;102364.63;;;11.50;100.00
25430;BME280;13360;48.152;-1.788;2023-04-08T08:16:57;102392.00;;;11.79;100.00
25430;BME280;13360;48.152;-1.788;2023-04-08T08:19:22;102369.91;;;11.84;100.00
25430;BME280;13360;48.152;-1.788;2023-04-08T08:21:48;102345.09;;;11.99;100.00
25430;BME280;13360;48.152;-1.788;2023-04-08T08:24:13;102360.78;;;12.31;100.00
25430;BME280;13360;48.152;-1.788;2023-04-08T08:26:38;102343.66;;;12.49;100.00
25430;BME280;13360;48.152;-1.788;2023-04-08T08:29:04;102351.00;;;12.75;100.00
25430;BME280;13360;48.152;-1.788;2023-04-08T08:31:32;102345.50;;;12.96;100.00
25430;BME280;13360;48.152;-1.788;2023-04-08T08:33:57;102322.16;;;12.76;100.00
25430;BME280;13360;48.152;-1.788;2023-04-08T08:36:22;102315.56;;;12.93;100.00
25430;BME280;13360;48.152;-1.788;2023-04-08T08:38:48;102304.47;;;12.98;100.00
25430;BME280;13360;48.152;-1.788;2023-04-08T08:41:13;102295.09;;;13.19;100.00
25430;BME280;13360;48.152;-1.788;2023-04-08T08:43:39;102314.53;;;13.39;100.00
25430;BME280;13360;48.152;-1.788;2023-04-08T08:46:06;102334.78;;;13.65;100.00
25430;BME280;13360;48.152;-1.788;2023-04-08T08:48:34;102291.41;;;13.85;100.00
25430;BME280;13360;48.152;-1.788;2023-04-08T08:51:06;102268.38;;;13.79;100.00
25430;BME280;13360;48.152;-1.788;2023-04-08T08:53:32;102278.34;;;14.00;100.00
25430;BME280;13360;48.152;-1.788;2023-04-08T08:55:57;102239.34;;;14.16;100.00
25430;BME280;13360;48.152;-1.788;2023-04-08T08:58:25;102233.44;;;14.32;100.00
25430;BME280;13360;48.152;-1.788;2023-04-08T09:00:50;102218.59;;;14.62;100.00
25430;BME280;13360;48.152;-1.788;2023-04-08T09:03:17;102199.25;;;14.81;100.00
25430;BME280;13360;48.152;-1.788;2023-04-08T09:05:52;102190.88;;;15.15;100.00
25430;BME280;13360;48.152;-1.788;2023-04-08T09:08:34;102181.56;;;15.30;100.00
25430;BME280;13360;48.152;-1.788;2023-04-08T09:13:36;102158.16;;;15.31;100.00
25430;BME280;13360;48.152;-1.788;2023-04-08T09:16:12;102146.19;;;15.31;100.00
25430;BME280;13360;48.152;-1.788;2023-04-08T09:18:39;102143.97;;;15.62;100.00
25430;BME280;13360;48.152;-1.788;2023-04-08T09:21:05;102140.69;;;15.97;100.00
25430;BME280;13360;48.152;-1.788;2023-04-08T09:26:07;102125.94;;;16.34;100.00
25430;BME280;13360;48.152;-1.788;2023-04-08T09:28:32;102125.03;;;16.20;100.00
25430;BME280;13360;48.152;-1.788;2023-04-08T09:30:58;102130.47;;;16.30;100.00
25430;BME280;13360;48.152;-1.788;2023-04-08T09:33:29;102130.31;;;16.40;100.00
25430;BME280;13360;48.152;-1.788;2023-04-08T09:35:54;102121.94;;;16.40;100.00
25430;BME280;13360;48.152;-1.788;2023-04-08T09:38:19;102116.75;;;16.53;100.00
25430;BME280;13360;48.152;-1.788;2023-04-08T09:40:45;102137.09;;;16.72;100.00
25430;BME280;13360;48.152;-1.788;2023-04-08T09:43:10;102097.72;;;17.20;100.00
25430;BME280;13360;48.152;-1.788;2023-04-08T09:45:37;102112.81;;;17.46;100.00
25430;BME280;13360;48.152;-1.788;2023-04-08T09:48:09;102115.94;;;17.86;100.00
25430;BME280;13360;48.152;-1.788;2023-04-08T09:50:39;102118.66;;;18.27;100.00
25430;BME280;13360;48.152;-1.788;2023-04-08T09:53:09;102110.75;;;18.65;100.00
25430;BME280;13360;48.152;-1.788;2023-04-08T09:55:37;102113.50;;;18.79;100.00
25430;BME280;13360;48.152;-1.788;2023-04-08T09:58:07;102111.66;;;18.74;100.00
25430;BME280;13360;48.152;-1.788;2023-04-08T10:00:38;102119.03;;;18.70;100.00
25430;BME280;13360;48.152;-1.788;2023-04-08T10:03:15;102125.72;;;19.14;100.00
25430;BME280;13360;48.152;-1.788;2023-04-08T10:05:43;102119.22;;;19.36;100.00
25430;BME280;13360;48.152;-1.788;2023-04-08T10:08:09;102116.09;;;19.68;100.00
25430;BME280;13360;48.152;-1.788;2023-04-08T10:10:35;102111.53;;;19.50;100.00
25430;BME280;13360;48.152;-1.788;2023-04-08T10:13:02;102119.69;;;19.29;100.00
25430;BME280;13360;48.152;-1.788;2023-04-08T10:15:32;102108.53;;;18.53;100.00
25430;BME280;13360;48.152;-1.788;2023-04-08T10:27:54;102085.75;;;16.73;100.00
25430;BME280;13360;48.152;-1.788;2023-04-08T10:32:58;102085.69;;;16.40;100.00
25430;BME280;13360;48.152;-1.788;2023-04-08T10:35:30;102085.78;;;16.16;100.00
25430;BME280;13360;48.152;-1.788;2023-04-08T10:37:56;102084.66;;;15.99;100.00
25430;BME280;13360;48.152;-1.788;2023-04-08T10:40:22;102070.81;;;15.94;100.00
25430;BME280;13360;48.152;-1.788;2023-04-08T10:42:53;102099.13;;;16.01;100.00
25430;BME280;13360;48.152;-1.788;2023-04-08T10:45:18;102101.03;;;16.24;100.00
25430;BME280;13360;48.152;-1.788;2023-04-08T10:47:43;102070.06;;;16.26;100.00
25430;BME280;13360;48.152;-1.788;2023-04-08T10:50:12;102096.94;;;16.35;100.00
25430;BME280;13360;48.152;-1.788;2023-04-08T10:52:50;102068.00;;;16.31;100.00
25430;BME280;13360;48.152;-1.788;2023-04-08T10:55:20;102096.63;;;16.37;100.00
25430;BME280;13360;48.152;-1.788;2023-04-08T10:57:46;102092.09;;;16.41;100.00
25430;BME280;13360;48.152;-1.788;2023-04-08T11:00:14;102065.84;;;16.09;100.00
25430;BME280;13360;48.152;-1.788;2023-04-08T11:02:41;102062.06;;;15.81;100.00
25430;BME280;13360;48.152;-1.788;2023-04-08T11:05:08;102093.00;;;15.80;100.00
25430;BME280;13360;48.152;-1.788;2023-04-08T11:07:38;102120.00;;;16.03;100.00
25430;BME280;13360;48.152;-1.788;2023-04-08T11:10:03;102130.41;;;16.16;100.00
25430;BME280;13360;48.152;-1.788;2023-04-08T11:12:29;102112.44;;;16.23;100.00
25430;BME280;13360;48.152;-1.788;2023-04-08T11:14:56;102067.63;;;16.19;100.00
25430;BME280;13360;48.152;-1.788;2023-04-08T11:17:21;102053.03;;;16.08;100.00
25430;BME280;13360;48.152;-1.788;2023-04-08T11:19:47;102081.06;;;16.17;100.00
25430;BME280;13360;48.152;-1.788;2023-04-08T11:22:12;102072.28;;;16.24;100.00
25430;BME280;13360;48.152;-1.788;2023-04-08T11:24:37;102055.34;;;16.20;100.00
25430;BME280;13360;48.152;-1.788;2023-04-08T11:27:03;102053.56;;;16.10;100.00
25430;BME280;13360;48.152;-1.788;2023-04-08T11:29:30;102045.72;;;16.12;100.00
25430;BME280;13360;48.152;-1.788;2023-04-08T11:31:56;102054.00;;;16.17;100.00
25430;BME280;13360;48.152;-1.788;2023-04-08T11:34:22;102052.03;;;15.99;100.00
25430;BME280;13360;48.152;-1.788;2023-04-08T11:36:48;102051.00;;;15.95;100.00
25430;BME280;13360;48.152;-1.788;2023-04-08T11:39:14;102071.84;;;15.98;100.00
25430;BME280;13360;48.152;-1.788;2023-04-08T11:41:39;102079.59;;;16.01;100.00
25430;BME280;13360;48.152;-1.788;2023-04-08T11:44:05;102043.38;;;15.82;100.00
25430;BME280;13360;48.152;-1.788;2023-04-08T11:46:33;102101.59;;;16.02;100.00
25430;BME280;13360;48.152;-1.788;2023-04-08T11:49:03;102084.97;;;16.16;100.00
25430;BME280;13360;48.152;-1.788;2023-04-08T11:51:29;102047.56;;;16.03;100.00
25430;BME280;13360;48.152;-1.788;2023-04-08T11:53:54;102046.63;;;16.08;100.00
25430;BME280;13360;48.152;-1.788;2023-04-08T11:56:20;102041.38;;;16.06;100.00
25430;BME280;13360;48.152;-1.788;2023-04-08T11:58:46;102036.16;;;16.00;100.00
25430;BME280;13360;48.152;-1.788;2023-04-08T12:01:11;102078.34;;;16.12;100.00
25430;BME280;13360;48.152;-1.788;2023-04-08T12:03:37;102069.38;;;16.15;100.00
25430;BME280;13360;48.152;-1.788;2023-04-08T12:06:02;102037.88;;;16.14;100.00
25430;BME280;13360;48.152;-1.788;2023-04-08T12:08:29;102033.56;;;16.22;100.00
25430;BME280;13360;48.152;-1.788;2023-04-08T12:10:54;102043.59;;;16.23;100.00
25430;BME280;13360;48.152;-1.788;2023-04-08T12:13:19;102037.56;;;16.16;100.00
25430;BME280;13360;48.152;-1.788;2023-04-08T12:15:45;102057.00;;;16.21;100.00
25430;BME280;13360;48.152;-1.788;2023-04-08T12:18:10;102047.00;;;16.20;100.00
25430;BME280;13360;48.152;-1.788;2023-04-08T12:20:36;102074.09;;;16.33;100.00
25430;BME280;13360;48.152;-1.788;2023-04-08T12:23:01;102088.34;;;16.32;100.00
25430;BME280;13360;48.152;-1.788;2023-04-08T12:25:26;102110.28;;;16.38;100.00
25430;BME280;13360;48.152;-1.788;2023-04-08T12:27:51;102071.84;;;16.35;100.00
25430;BME280;13360;48.152;-1.788;2023-04-08T12:30:17;102058.50;;;16.32;100.00
25430;BME280;13360;48.152;-1.788;2023-04-08T12:32:42;102041.56;;;16.29;100.00
25430;BME280;13360;48.152;-1.788;2023-04-08T12:35:09;102016.84;;;16.22;100.00
25430;BME280;13360;48.152;-1.788;2023-04-08T12:37:35;102021.84;;;16.25;100.00
25430;BME280;13360;48.152;-1.788;2023-04-08T12:40:00;102051.28;;;16.31;100.00
25430;BME280;13360;48.152;-1.788;2023-04-08T12:42:26;102015.19;;;16.21;100.00
25430;BME280;13360;48.152;-1.788;2023-04-08T12:44:53;102023.44;;;16.12;100.00